Time;durP1;ratioP1;P1;durP2;ratioP2;P2;SDS_P1;SDS_P2;PMS_P1;PMS_P2;Temp;Humidity;BMP_temperature;BMP_pressure;BME280_temperature;BME280_humidity;BME280_pressure;Samples;Min_cycle;Max_cycle;Signal;HPM_P1;HPM_P2
2022/09/08 00:02:06;;;;;;;3.17;2.33;;;18.80;97.30;;;;;;4980558;28;20203;-87
2022/09/08 00:04:31;;;;;;;4.57;3.97;;;18.80;97.30;;;;;;4998738;28;20181;-87
2022/09/08 00:06:57;;;;;;;8.90;2.80;;;18.80;97.30;;;;;;4995663;28;20196;-87
2022/09/08 00:09:22;;;;;;;4.33;2.77;;;18.80;97.30;;;;;;4992951;28;20300;-88
2022/09/08 00:11:50;;;;;;;3.57;2.60;;;18.80;97.30;;;;;;4992635;28;20197;-88
2022/09/08 00:14:16;;;;;;;3.37;2.60;;;18.70;97.30;;;;;;5010119;28;20197;-88
2022/09/08 00:16:41;;;;;;;3.13;2.57;;;18.70;97.30;;;;;;5010173;28;20969;-87
2022/09/08 00:19:07;;;;;;;3.97;2.90;;;18.70;97.30;;;;;;4992432;28;20284;-87
2022/09/08 00:21:33;;;;;;;2.70;2.50;;;18.60;97.30;;;;;;5056446;22;20244;-89
2022/09/08 00:23:58;;;;;;;3.20;2.50;;;18.60;97.30;;;;;;5008728;28;20187;-90
2022/09/08 00:26:24;;;;;;;3.83;2.87;;;18.50;97.30;;;;;;5030209;28;20181;-89
2022/09/08 00:28:52;;;;;;;3.37;3.20;;;18.50;97.30;;;;;;5033653;28;20198;-91
2022/09/08 00:31:20;;;;;;;3.93;2.70;;;18.50;97.30;;;;;;5038392;28;20223;-92
2022/09/08 00:33:46;;;;;;;3.00;2.47;;;18.40;97.30;;;;;;5054415;28;20463;-90
2022/09/08 00:36:15;;;;;;;2.67;1.93;;;18.40;97.30;;;;;;5034943;28;20432;-89
2022/09/08 00:38:44;;;;;;;2.60;2.43;;;18.40;97.30;;;;;;5015412;28;20181;-89
2022/09/08 00:41:12;;;;;;;18.47;2.97;;;18.40;97.30;;;;;;5002538;28;20497;-89
2022/09/08 00:43:58;;;;;;;3.33;2.57;;;18.40;97.30;;;;;;5019503;28;20454;-89
2022/09/08 00:46:45;;;;;;;6.00;3.87;;;18.40;97.30;;;;;;5005394;28;20472;-89
2022/09/08 00:49:35;;;;;;;3.70;2.50;;;18.40;97.30;;;;;;5016062;28;20427;-89
2022/09/08 00:52:03;;;;;;;4.87;3.20;;;18.40;97.30;;;;;;5015168;28;20431;-90
2022/09/08 00:54:32;;;;;;;2.63;2.43;;;18.40;97.30;;;;;;5016370;28;20447;-89
2022/09/08 00:57:03;;;;;;;5.27;3.20;;;18.30;97.30;;;;;;5021082;28;20426;-88
2022/09/08 00:59:52;;;;;;;6.53;3.40;;;18.30;97.30;;;;;;5015030;28;20580;-89
2022/09/08 01:02:34;;;;;;;3.53;2.40;;;18.30;97.30;;;;;;5015669;28;20488;-89
2022/09/08 01:05:11;;;;;;;2.70;2.50;;;18.30;97.30;;;;;;5016048;28;20597;-89
2022/09/08 01:13:59;;;;;;;4.00;3.13;;;18.20;97.30;;;;;;5040709;28;20454;-91
2022/09/08 01:16:25;;;;;;;2.77;2.10;;;18.20;97.30;;;;;;5040293;28;20427;-90
2022/09/08 01:18:51;;;;;;;4.20;3.30;;;18.20;97.30;;;;;;5054755;28;20427;-89
2022/09/08 01:21:54;;;;;;;5.07;2.00;;;18.20;97.30;;;;;;5028727;28;20683;-89
2022/09/08 01:24:28;;;;;;;6.63;4.50;;;18.10;97.30;;;;;;4993982;28;20672;-89
2022/09/08 01:27:10;;;;;;;8.53;4.03;;;18.10;97.30;;;;;;5034237;28;20419;-89
2022/09/08 01:29:37;;;;;;;5.00;2.93;;;18.10;97.30;;;;;;5034530;28;20880;-89
2022/09/08 01:32:04;;;;;;;5.60;3.70;;;18.10;97.30;;;;;;5052282;28;20438;-90
2022/09/08 01:34:40;;;;;;;2.73;2.20;;;18.10;97.30;;;;;;5039326;28;20521;-89
2022/09/08 01:37:06;;;;;;;9.90;3.60;;;18.10;97.30;;;;;;5038683;28;20421;-89
2022/09/08 01:39:32;;;;;;;5.27;3.40;;;18.10;97.30;;;;;;5055192;28;20502;-89
2022/09/08 01:41:59;;;;;;;11.50;5.90;;;18.10;97.30;;;;;;5042229;28;20230;-89
2022/09/08 01:44:26;;;;;;;4.97;3.50;;;18.10;97.30;;;;;;5055780;28;20433;-89
2022/09/08 01:46:51;;;;;;;6.60;3.00;;;18.00;97.30;;;;;;5038771;28;20434;-89
2022/09/08 01:49:17;;;;;;;3.70;2.30;;;18.00;97.30;;;;;;5047023;28;20430;-89
2022/09/08 01:51:42;;;;;;;4.13;2.03;;;18.00;97.30;;;;;;5054762;28;20287;-89
2022/09/08 01:54:08;;;;;;;4.03;2.83;;;18.00;97.30;;;;;;5046440;28;20298;-89
2022/09/08 01:56:35;;;;;;;3.17;2.80;;;18.00;97.30;;;;;;5039082;28;20226;-89
2022/09/08 01:59:00;;;;;;;5.57;4.83;;;18.00;97.30;;;;;;5042939;28;20642;-89
2022/09/08 02:01:26;;;;;;;3.63;2.47;;;18.00;97.30;;;;;;5040227;28;20441;-89
2022/09/08 02:03:51;;;;;;;3.00;2.47;;;18.00;97.30;;;;;;5044093;28;20179;-89
2022/09/08 02:06:17;;;;;;;8.13;3.63;;;18.00;97.30;;;;;;5038084;28;20179;-89
2022/09/08 02:08:43;;;;;;;3.93;2.83;;;18.00;97.30;;;;;;5038539;28;20211;-89
2022/09/08 02:11:09;;;;;;;2.37;2.17;;;18.00;97.30;;;;;;5047246;28;20617;-88
2022/09/08 02:13:35;;;;;;;2.77;2.47;;;18.00;97.30;;;;;;5056305;28;20461;-90
2022/09/08 02:16:04;;;;;;;5.00;4.00;;;18.00;97.30;;;;;;5042272;28;20176;-89
2022/09/08 02:18:31;;;;;;;3.90;2.67;;;18.00;97.30;;;;;;5037790;28;20554;-90
2022/09/08 02:21:02;;;;;;;3.73;2.73;;;18.00;97.30;;;;;;5046799;28;20477;-89
2022/09/08 02:23:28;;;;;;;3.00;1.97;;;18.00;97.30;;;;;;5037354;28;20433;-90
2022/09/08 02:25:54;;;;;;;4.10;2.70;;;18.00;97.30;;;;;;5037761;28;20418;-89
2022/09/08 02:28:20;;;;;;;2.60;2.40;;;18.00;97.30;;;;;;5024543;28;20200;-89
2022/09/08 02:30:45;;;;;;;9.27;2.87;;;18.00;97.30;;;;;;5045638;28;20442;-89
2022/09/08 02:33:11;;;;;;;7.53;3.20;;;18.00;97.30;;;;;;5045323;28;20287;-89
2022/09/08 02:35:36;;;;;;;4.47;2.97;;;18.00;97.30;;;;;;5050784;28;20187;-89
2022/09/08 02:38:01;;;;;;;2.40;2.23;;;17.90;97.30;;;;;;5047615;28;20259;-89
2022/09/08 02:40:27;;;;;;;6.27;3.27;;;17.90;97.30;;;;;;5054081;28;20195;-89
2022/09/08 02:42:53;;;;;;;3.27;2.73;;;18.00;97.30;;;;;;5037648;28;20199;-90
2022/09/08 02:45:19;;;;;;;2.53;2.00;;;18.00;97.30;;;;;;5037421;28;20164;-89
2022/09/08 02:47:44;;;;;;;9.87;2.33;;;18.00;97.30;;;;;;5036954;28;20844;-89
2022/09/08 02:50:10;;;;;;;3.77;2.53;;;18.00;97.30;;;;;;5037054;28;20298;-89
2022/09/08 02:52:35;;;;;;;3.07;2.87;;;18.00;97.30;;;;;;5036768;28;20254;-90
2022/09/08 02:55:01;;;;;;;8.53;4.03;;;18.00;97.30;;;;;;5054012;28;20706;-89
2022/09/08 02:57:26;;;;;;;3.17;2.63;;;18.00;97.30;;;;;;5035870;28;20528;-89
2022/09/08 02:59:52;;;;;;;2.37;1.90;;;18.00;97.30;;;;;;5028056;28;20179;-89
2022/09/08 03:02:17;;;;;;;4.37;2.20;;;18.00;97.30;;;;;;5037320;28;20206;-89
2022/09/08 03:04:43;;;;;;;2.87;1.80;;;18.00;97.30;;;;;;5036630;28;20213;-89
2022/09/08 03:07:08;;;;;;;2.70;2.50;;;18.00;97.30;;;;;;5034224;28;20176;-89
2022/09/08 03:09:34;;;;;;;8.90;3.27;;;18.00;97.30;;;;;;5040705;28;20258;-89
2022/09/08 03:11:59;;;;;;;5.27;4.00;;;18.00;97.30;;;;;;5036766;28;20233;-87
2022/09/08 03:14:25;;;;;;;4.80;2.20;;;18.00;97.30;;;;;;5036259;28;20210;-89
2022/09/08 03:16:50;;;;;;;3.00;2.30;;;18.00;97.30;;;;;;5042138;28;20299;-89
2022/09/08 03:19:16;;;;;;;3.33;2.17;;;18.00;97.30;;;;;;5040873;28;20179;-89
2022/09/08 03:21:41;;;;;;;3.03;2.63;;;18.00;97.30;;;;;;5036712;28;20231;-88
2022/09/08 03:24:09;;;;;;;8.27;5.43;;;18.00;97.30;;;;;;5052879;28;20256;-89
2022/09/08 03:26:35;;;;;;;13.70;4.60;;;18.00;97.30;;;;;;5036566;28;20192;-89
2022/09/08 03:29:00;;;;;;;5.20;3.27;;;18.00;97.30;;;;;;5052894;28;20488;-89
2022/09/08 03:31:26;;;;;;;7.17;4.53;;;18.00;97.30;;;;;;5036598;28;20592;-89
2022/09/08 03:33:53;;;;;;;2.90;2.33;;;18.00;97.30;;;;;;5052729;28;20199;-89
2022/09/08 03:36:19;;;;;;;3.37;3.17;;;17.90;97.30;;;;;;5054481;28;20262;-89
2022/09/08 03:38:45;;;;;;;5.33;2.87;;;18.00;97.30;;;;;;5037090;28;20430;-89
2022/09/08 03:41:15;;;;;;;3.83;3.10;;;18.00;97.30;;;;;;5036956;28;20503;-89
2022/09/08 03:43:45;;;;;;;3.97;3.23;;;18.00;97.30;;;;;;5054081;28;20658;-89
2022/09/08 03:46:11;;;;;;;7.73;2.77;;;17.90;97.30;;;;;;5036548;28;20429;-89
2022/09/08 03:48:37;;;;;;;4.63;2.70;;;17.90;97.30;;;;;;5036711;28;20464;-89
2022/09/08 03:51:22;;;;;;;3.80;2.47;;;17.90;97.30;;;;;;5054548;28;20521;-89
2022/09/08 03:53:49;;;;;;;5.77;3.47;;;18.00;97.30;;;;;;5049213;28;20700;-89
2022/09/08 03:56:14;;;;;;;5.57;2.90;;;17.90;97.30;;;;;;5036622;28;20441;-89
2022/09/08 03:58:41;;;;;;;4.63;3.10;;;18.00;97.30;;;;;;5044452;28;20422;-89
2022/09/08 04:01:09;;;;;;;3.57;2.70;;;18.00;97.30;;;;;;5036004;28;20674;-89
2022/09/08 04:03:34;;;;;;;4.13;2.63;;;18.00;97.30;;;;;;5045766;28;20426;-88
2022/09/08 04:06:03;;;;;;;3.30;3.10;;;18.00;97.30;;;;;;5036306;28;20797;-88
2022/09/08 04:08:29;;;;;;;2.87;2.60;;;18.00;97.30;;;;;;5036745;28;20578;-89
2022/09/08 04:10:55;;;;;;;2.57;2.43;;;18.00;97.30;;;;;;5036627;28;20473;-88
2022/09/08 04:13:23;;;;;;;3.43;3.23;;;18.00;97.30;;;;;;5036492;28;20975;-89
2022/09/08 04:16:05;;;;;;;5.90;2.90;;;18.00;97.30;;;;;;5038865;28;20569;-90
2022/09/08 04:18:33;;;;;;;4.60;2.83;;;18.00;97.30;;;;;;5033631;28;20429;-90
2022/09/08 04:21:03;;;;;;;10.17;4.00;;;18.00;97.30;;;;;;5040883;28;20514;-90
2022/09/08 04:23:59;;;;;;;;;;;;;;;;;;;;;
2022/09/08 04:26:25;;;;;;;7.97;4.20;;;18.00;97.30;;;;;;5043843;28;20432;-90
2022/09/08 04:28:54;;;;;;;4.57;2.90;;;18.00;97.30;;;;;;5036725;28;20767;-90
2022/09/08 04:31:22;;;;;;;4.47;3.23;;;18.00;97.30;;;;;;5036545;28;20442;-90
2022/09/08 04:33:57;;;;;;;7.40;3.00;;;18.00;97.30;;;;;;5045821;28;20828;-90
2022/09/08 04:36:23;;;;;;;7.87;2.90;;;18.00;97.30;;;;;;5041301;28;20437;-85
2022/09/08 04:39:05;;;;;;;4.40;2.50;;;18.00;97.30;;;;;;5036959;28;20983;-90
2022/09/08 04:41:33;;;;;;;3.97;2.70;;;18.00;97.30;;;;;;5045099;28;20307;-90
2022/09/08 04:44:04;;;;;;;2.97;2.00;;;17.90;97.30;;;;;;5029366;28;20419;-89
2022/09/08 04:46:33;;;;;;;6.17;3.20;;;17.90;97.30;;;;;;5037823;28;20418;-90
2022/09/08 04:48:59;;;;;;;5.13;3.07;;;17.80;97.30;;;;;;5040555;28;20472;-90
2022/09/08 04:51:27;;;;;;;5.73;2.97;;;17.80;97.30;;;;;;5044488;28;20469;-89
2022/09/08 04:53:52;;;;;;;8.87;3.33;;;17.80;97.30;;;;;;5038601;28;20516;-90
2022/09/08 04:56:22;;;;;;;3.87;3.47;;;17.80;97.30;;;;;;5040935;28;20940;-90
2022/09/08 04:58:49;;;;;;;3.53;2.10;;;17.80;97.30;;;;;;5042166;28;20176;-90
2022/09/08 05:01:19;;;;;;;3.43;2.83;;;17.90;97.30;;;;;;5051044;28;20434;-90
2022/09/08 05:03:46;;;;;;;1.93;1.60;;;17.90;97.30;;;;;;5060142;28;20418;-91
2022/09/08 05:06:14;;;;;;;2.83;2.47;;;17.90;97.30;;;;;;5091199;28;20437;-94
2022/09/08 05:08:45;;;;;;;1.97;1.90;;;17.90;97.30;;;;;;5062333;28;20426;-92
2022/09/08 05:11:11;;;;;;;3.40;2.27;;;17.90;97.30;;;;;;5074783;28;20450;-92
2022/09/08 05:13:37;;;;;;;5.80;1.93;;;17.90;97.30;;;;;;5044115;28;20877;-93
2022/09/08 05:16:05;;;;;;;3.43;2.03;;;17.90;97.30;;;;;;5037602;28;20418;-92
2022/09/08 05:18:30;;;;;;;4.20;1.90;;;17.90;97.30;;;;;;5035136;28;20480;-93
2022/09/08 05:20:56;;;;;;;2.47;2.00;;;17.90;97.30;;;;;;5038273;28;20980;-92
2022/09/08 05:23:22;;;;;;;3.10;1.87;;;17.80;97.30;;;;;;5054109;28;20215;-92
2022/09/08 05:26:00;;;;;;;3.50;2.50;;;17.80;97.30;;;;;;5046055;28;20229;-92
2022/09/08 05:28:28;;;;;;;2.50;2.33;;;17.80;97.30;;;;;;5038113;28;20642;-92
2022/09/08 05:30:53;;;;;;;8.57;2.97;;;17.80;97.30;;;;;;5035810;28;20477;-91
2022/09/08 05:33:20;;;;;;;9.20;2.80;;;17.80;97.30;;;;;;5044310;28;20979;-91
2022/09/08 05:35:46;;;;;;;3.30;1.97;;;17.80;97.30;;;;;;5052539;28;20330;-91
2022/09/08 05:38:11;;;;;;;4.10;3.17;;;17.80;97.30;;;;;;5035089;28;20989;-91
2022/09/08 05:40:37;;;;;;;3.70;2.60;;;17.80;97.30;;;;;;5042559;28;20610;-91
2022/09/08 05:43:03;;;;;;;2.13;1.73;;;17.80;97.30;;;;;;5051867;28;20262;-91
2022/09/08 05:45:29;;;;;;;2.40;1.73;;;17.80;97.30;;;;;;5036163;28;20212;-92
2022/09/08 05:47:54;;;;;;;3.53;2.70;;;17.80;97.30;;;;;;5046728;28;20449;-92
2022/09/08 05:50:20;;;;;;;2.17;1.70;;;17.80;97.30;;;;;;5071678;28;20438;-92
2022/09/08 05:52:46;;;;;;;4.40;2.60;;;17.90;97.30;;;;;;5072813;28;20208;-90
2022/09/08 05:55:11;;;;;;;4.13;1.77;;;17.90;97.30;;;;;;5045988;28;20678;-90
2022/09/08 05:57:39;;;;;;;7.97;3.40;;;17.90;97.30;;;;;;5037024;28;20176;-91
2022/09/08 06:00:06;;;;;;;3.30;2.67;;;17.90;97.30;;;;;;5049598;28;20200;-91
2022/09/08 06:02:31;;;;;;;5.50;2.67;;;17.90;97.30;;;;;;5036451;28;20468;-89
2022/09/08 06:04:57;;;;;;;3.17;1.93;;;18.00;97.30;;;;;;5037462;28;20441;-91
2022/09/08 06:07:22;;;;;;;2.70;2.03;;;18.00;97.30;;;;;;5036846;28;20180;-90
2022/09/08 06:09:50;;;;;;;1.50;1.40;;;18.00;97.30;;;;;;5037069;28;20199;-90
2022/09/08 06:12:16;;;;;;;7.07;3.40;;;18.00;97.30;;;;;;5054718;28;20179;-91
2022/09/08 06:14:41;;;;;;;3.00;1.90;;;18.00;97.30;;;;;;5053228;28;20604;-91
2022/09/08 06:17:07;;;;;;;3.77;3.10;;;18.10;97.30;;;;;;5036122;28;20183;-91
2022/09/08 06:19:33;;;;;;;3.00;2.80;;;18.10;97.30;;;;;;5036775;28;20237;-91
2022/09/08 06:22:01;;;;;;;7.30;3.50;;;18.10;97.30;;;;;;5036278;28;20238;-92
2022/09/08 06:24:26;;;;;;;2.37;2.20;;;18.20;97.30;;;;;;5024993;23;20496;-87
2022/09/08 06:27:01;;;;;;;5.57;2.50;;;18.20;97.30;;;;;;5011803;28;20420;-87
2022/09/08 06:29:45;;;;;;;5.17;1.97;;;18.20;97.30;;;;;;5007671;28;20181;-87
2022/09/08 06:32:45;;;;;;;3.73;2.57;;;18.30;97.30;;;;;;4994302;28;20420;-87
2022/09/08 06:35:35;;;;;;;4.83;3.30;;;18.30;97.30;;;;;;5017348;28;20467;-87
2022/09/08 06:38:07;;;;;;;2.30;2.13;;;18.30;97.30;;;;;;5002508;28;20895;-87
2022/09/08 06:40:40;;;;;;;4.30;2.27;;;18.30;97.30;;;;;;5013220;28;20484;-87
2022/09/08 06:43:21;;;;;;;2.40;2.20;;;18.30;97.30;;;;;;5010421;28;20839;-88
2022/09/08 06:45:53;;;;;;;4.27;2.57;;;18.30;97.30;;;;;;5023507;28;20431;-87
2022/09/08 06:48:33;;;;;;;2.73;2.40;;;18.30;97.30;;;;;;5005946;28;20418;-87
2022/09/08 06:51:05;;;;;;;4.43;2.57;;;18.30;97.30;;;;;;5011918;28;20419;-88
2022/09/08 06:53:59;;;;;;;7.87;3.30;;;18.30;97.30;;;;;;5020250;28;20466;-87
2022/09/08 06:56:51;;;;;;;5.60;3.53;;;18.30;97.30;;;;;;5005362;28;20493;-87
2022/09/08 06:59:36;;;;;;;3.67;3.20;;;18.30;97.30;;;;;;5027544;28;20419;-86
2022/09/08 07:02:30;;;;;;;3.47;3.20;;;18.30;97.30;;;;;;5013162;28;20423;-89
2022/09/08 07:05:10;;;;;;;5.00;3.17;;;18.30;97.30;;;;;;5019035;28;20431;-87
2022/09/08 07:08:00;;;;;;;3.57;2.23;;;18.30;97.30;;;;;;5012940;28;20419;-90
2022/09/08 07:10:42;;;;;;;9.03;2.37;;;18.30;97.30;;;;;;5017611;28;20447;-88
2022/09/08 07:13:29;;;;;;;3.23;2.60;;;18.30;97.30;;;;;;5003987;28;20452;-87
2022/09/08 07:16:07;;;;;;;9.60;3.20;;;18.30;97.30;;;;;;5012378;28;20446;-88
2022/09/08 07:18:39;;;;;;;3.30;2.07;;;18.30;97.30;;;;;;5012680;28;20441;-87
2022/09/08 07:21:08;;;;;;;4.17;2.83;;;18.30;97.30;;;;;;5001696;28;20510;-89
2022/09/08 07:23:37;;;;;;;6.07;3.20;;;18.40;97.30;;;;;;5027958;28;21047;-88
2022/09/08 07:26:16;;;;;;;3.63;2.20;;;18.40;97.30;;;;;;5041776;28;20541;-88
2022/09/08 07:28:46;;;;;;;5.10;3.00;;;18.40;97.30;;;;;;5029468;28;20426;-88
2022/09/08 07:31:19;;;;;;;5.53;2.97;;;18.40;97.30;;;;;;5032779;28;20472;-88
2022/09/08 07:33:49;;;;;;;3.80;2.90;;;18.40;97.30;;;;;;5032142;28;20495;-87
2022/09/08 07:36:43;;;;;;;4.50;2.53;;;18.40;97.30;;;;;;5032686;28;20424;-87
2022/09/08 07:39:20;;;;;;;6.07;3.40;;;18.40;97.30;;;;;;5013572;28;20423;-88
2022/09/08 07:41:55;;;;;;;6.03;3.50;;;18.40;97.30;;;;;;5035031;28;20429;-87
2022/09/08 07:44:21;;;;;;;3.30;2.90;;;18.40;97.30;;;;;;5032294;28;20468;-87
2022/09/08 07:47:17;;;;;;;4.53;2.93;;;18.40;97.30;;;;;;5048763;28;20912;-88
2022/09/08 07:50:16;;;;;;;2.97;2.23;;;18.40;97.30;;;;;;5032385;28;20179;-88
2022/09/08 07:53:08;;;;;;;8.00;3.03;;;18.40;97.30;;;;;;5031676;28;20437;-88
2022/09/08 07:55:40;;;;;;;4.33;3.20;;;18.40;97.30;;;;;;5032739;28;20426;-87
2022/09/08 07:58:14;;;;;;;3.33;2.73;;;18.30;97.30;;;;;;5019814;28;20417;-89
2022/09/08 08:00:48;;;;;;;3.00;2.80;;;18.30;97.30;;;;;;5031914;28;20425;-88
2022/09/08 08:03:38;;;;;;;3.60;2.73;;;18.30;97.30;;;;;;5013023;28;20452;-87
2022/09/08 08:06:38;;;;;;;7.93;3.23;;;18.40;97.30;;;;;;5029647;28;20402;-87
2022/09/08 08:09:28;;;;;;;3.00;2.80;;;18.40;97.30;;;;;;5031871;28;20418;-87
2022/09/08 08:12:09;;;;;;;4.17;2.53;;;18.40;97.30;;;;;;5032086;28;20418;-87
2022/09/08 08:14:54;;;;;;;4.77;3.00;;;18.40;97.30;;;;;;5024590;28;20897;-87
2022/09/08 08:17:29;;;;;;;3.27;2.20;;;18.40;97.30;;;;;;5045131;28;20426;-87
2022/09/08 08:20:39;;;;;;;4.07;2.73;;;18.40;97.30;;;;;;5020721;28;20433;-87
2022/09/08 08:23:29;;;;;;;3.83;2.30;;;18.40;97.30;;;;;;5011690;28;20804;-87
2022/09/08 08:26:19;;;;;;;6.60;3.97;;;18.40;97.30;;;;;;5029089;28;21015;-88
2022/09/08 08:28:45;;;;;;;3.53;3.10;;;18.40;97.30;;;;;;5031662;28;20441;-87
2022/09/08 08:31:31;;;;;;;3.40;2.70;;;18.30;97.30;;;;;;5047404;28;20421;-87
2022/09/08 08:34:05;;;;;;;4.60;3.70;;;18.30;97.30;;;;;;5019134;28;20458;-86
2022/09/08 08:36:36;;;;;;;5.50;2.70;;;18.30;97.30;;;;;;5030991;28;20422;-87
2022/09/08 08:39:23;;;;;;;4.50;3.30;;;18.30;97.30;;;;;;5023982;28;20408;-88
2022/09/08 08:42:34;;;;;;;10.33;2.77;;;18.30;97.30;;;;;;5030351;28;20428;-87
2022/09/08 08:45:32;;;;;;;3.30;2.47;;;18.30;97.30;;;;;;5004422;28;20991;-87
2022/09/08 08:48:35;;;;;;;4.30;2.50;;;18.30;97.30;;;;;;5047908;28;20461;-87
2022/09/08 08:51:26;;;;;;;5.40;2.73;;;18.20;97.30;;;;;;5031722;28;20420;-87
2022/09/08 08:54:10;;;;;;;7.80;3.50;;;18.20;97.30;;;;;;5031442;28;20492;-87
2022/09/08 08:56:46;;;;;;;3.27;2.17;;;18.20;97.30;;;;;;5031437;28;20418;-87
2022/09/08 08:59:42;;;;;;;3.87;2.83;;;18.20;97.30;;;;;;5031462;28;20824;-88
2022/09/08 09:02:33;;;;;;;3.53;2.50;;;18.20;97.30;;;;;;5031480;28;20456;-87
2022/09/08 09:05:20;;;;;;;2.80;2.60;;;18.20;97.30;;;;;;5037235;28;20476;-88
2022/09/08 09:08:35;;;;;;;6.23;3.40;;;18.20;97.30;;;;;;5031009;28;20406;-88
2022/09/08 09:11:36;;;;;;;3.40;3.20;;;18.20;97.30;;;;;;5031859;28;20418;-87
2022/09/08 09:14:34;;;;;;;13.87;4.30;;;18.20;97.30;;;;;;5023185;28;20454;-87
2022/09/08 09:17:31;;;;;;;2.27;2.07;;;18.20;97.30;;;;;;5043491;28;20797;-87
2022/09/08 09:20:25;;;;;;;6.97;4.27;;;18.20;97.30;;;;;;5019761;28;20447;-88
2022/09/08 09:23:07;;;;;;;4.07;3.40;;;18.20;97.30;;;;;;5021405;28;20810;-86
2022/09/08 09:25:59;;;;;;;3.53;2.40;;;18.20;97.30;;;;;;5031223;28;20516;-89
2022/09/08 09:28:34;;;;;;;2.73;2.00;;;18.20;97.30;;;;;;5020568;28;21017;-87
2022/09/08 09:31:34;;;;;;;4.07;2.30;;;18.30;97.30;;;;;;5033267;28;20436;-87
2022/09/08 09:34:11;;;;;;;3.00;2.63;;;18.30;97.30;;;;;;5038829;28;20466;-87
2022/09/08 09:36:49;;;;;;;3.23;2.70;;;18.30;97.30;;;;;;5034625;28;20422;-87
2022/09/08 09:39:27;;;;;;;5.63;3.20;;;18.30;97.30;;;;;;5052546;28;20439;-87
2022/09/08 09:42:14;;;;;;;1.67;1.60;;;18.30;97.30;;;;;;5031150;28;20418;-87
2022/09/08 09:45:17;;;;;;;8.03;2.77;;;18.40;97.30;;;;;;5033215;28;20439;-87
2022/09/08 09:47:50;;;;;;;6.43;3.00;;;18.40;97.30;;;;;;5051224;28;20504;-86
2022/09/08 09:50:47;;;;;;;3.03;2.60;;;18.40;97.30;;;;;;5019413;28;20423;-87
2022/09/08 09:53:47;;;;;;;3.30;3.10;;;18.40;97.30;;;;;;5032981;28;20990;-87
2022/09/08 09:56:32;;;;;;;3.90;2.40;;;18.50;97.30;;;;;;5052002;28;20425;-88
2022/09/08 09:59:28;;;;;;;15.80;3.73;;;18.50;97.30;;;;;;5040166;28;20414;-89
2022/09/08 10:02:32;;;;;;;4.70;2.40;;;18.50;97.30;;;;;;5024692;28;20840;-87
2022/09/08 10:05:25;;;;;;;2.53;2.33;;;18.60;97.30;;;;;;5020207;28;20450;-89
2022/09/08 10:08:14;;;;;;;5.07;2.10;;;18.70;97.30;;;;;;5033176;28;20499;-87
2022/09/08 10:10:40;;;;;;;6.07;4.60;;;18.70;97.30;;;;;;5051236;28;20479;-88
2022/09/08 10:13:23;;;;;;;6.40;3.33;;;18.80;97.30;;;;;;5034402;28;20883;-88
2022/09/08 10:16:18;;;;;;;5.40;2.53;;;18.80;97.30;;;;;;5051307;28;20178;-87
2022/09/08 10:19:03;;;;;;;7.17;3.40;;;18.90;97.30;;;;;;5034035;28;20453;-88
2022/09/08 10:21:52;;;;;;;4.27;2.47;;;18.90;97.30;;;;;;5023653;28;20423;-87
2022/09/08 10:24:46;;;;;;;1.87;1.73;;;19.00;97.30;;;;;;5014226;28;20467;-89
2022/09/08 10:27:27;;;;;;;4.30;2.03;;;19.00;97.30;;;;;;5027974;28;20420;-88
2022/09/08 10:30:17;;;;;;;5.87;2.50;;;19.00;97.30;;;;;;5014834;28;20423;-88
2022/09/08 10:32:54;;;;;;;3.37;1.93;;;19.00;97.30;;;;;;5031065;28;20427;-87
2022/09/08 10:35:41;;;;;;;2.40;2.00;;;19.10;97.30;;;;;;5014133;28;20516;-88
2022/09/08 10:38:17;;;;;;;2.70;1.83;;;19.10;97.30;;;;;;5017845;28;20416;-87
2022/09/08 10:40:55;;;;;;;3.43;2.67;;;19.10;97.30;;;;;;5006233;28;20424;-88
2022/09/08 10:43:38;;;;;;;1.97;1.50;;;19.10;97.30;;;;;;5008530;28;20440;-88
2022/09/08 10:46:36;;;;;;;1.63;1.50;;;19.10;97.30;;;;;;5014268;28;20431;-89
2022/09/08 10:49:04;;;;;;;2.13;1.70;;;19.10;97.30;;;;;;5011193;28;20420;-88
2022/09/08 10:51:39;;;;;;;1.30;1.20;;;19.20;97.30;;;;;;5027237;28;20449;-87
2022/09/08 10:54:23;;;;;;;1.47;1.40;;;19.20;97.30;;;;;;5011013;28;20459;-88
2022/09/08 10:56:49;;;;;;;2.10;1.83;;;19.20;97.30;;;;;;5020068;28;20419;-88
2022/09/08 10:59:36;;;;;;;1.53;1.43;;;19.30;97.30;;;;;;5011870;28;20788;-88
2022/09/08 11:02:32;;;;;;;2.53;2.33;;;19.30;97.30;;;;;;5014740;28;20180;-91
2022/09/08 11:05:28;;;;;;;2.50;2.33;;;19.30;97.30;;;;;;4994933;28;20448;-88
2022/09/08 11:08:22;;;;;;;5.17;2.07;;;19.40;97.30;;;;;;5023563;28;20431;-88
2022/09/08 11:11:28;;;;;;;1.87;1.77;;;19.40;97.30;;;;;;5028588;28;20983;-87
2022/09/08 11:14:02;;;;;;;2.13;1.87;;;19.50;97.30;;;;;;5013192;28;20471;-87
2022/09/08 11:16:40;;;;;;;2.13;1.83;;;19.50;97.30;;;;;;5031360;28;20425;-87
2022/09/08 11:19:11;;;;;;;5.93;1.73;;;19.50;97.30;;;;;;5027429;28;20419;-88
2022/09/08 11:21:47;;;;;;;3.73;2.70;;;19.50;97.30;;;;;;5012586;28;20525;-89
2022/09/08 11:24:34;;;;;;;1.77;1.70;;;19.50;97.30;;;;;;5016624;28;20539;-88
2022/09/08 11:27:14;;;;;;;1.87;1.50;;;19.40;97.30;;;;;;5027451;28;20429;-89
2022/09/08 11:29:40;;;;;;;2.50;1.93;;;19.30;97.30;;;;;;5023577;28;20460;-89
2022/09/08 11:32:31;;;;;;;4.80;1.77;;;19.30;97.30;;;;;;5027228;28;20462;-88
2022/09/08 11:35:43;;;;;;;2.90;1.50;;;19.30;97.30;;;;;;5025209;28;20486;-88
2022/09/08 11:38:43;;;;;;;2.70;2.10;;;19.30;97.30;;;;;;5046913;28;20463;-86
2022/09/08 11:41:49;;;;;;;8.47;1.87;;;19.40;97.30;;;;;;5025158;28;20472;-88
2022/09/08 11:44:31;;;;;;;2.17;1.57;;;19.40;97.30;;;;;;5026303;28;20487;-88
2022/09/08 11:47:09;;;;;;;1.47;1.43;;;19.40;97.30;;;;;;5021681;28;20453;-88
2022/09/08 11:50:03;;;;;;;1.73;1.60;;;19.40;97.30;;;;;;5029621;28;20501;-88
2022/09/08 11:52:54;;;;;;;1.63;1.53;;;19.40;97.30;;;;;;5028291;28;20423;-86
2022/09/08 11:55:53;;;;;;;1.73;1.60;;;19.40;97.30;;;;;;5028092;28;20465;-88
2022/09/08 11:58:40;;;;;;;3.43;2.47;;;19.30;97.30;;;;;;5031145;28;20423;-87
2022/09/08 12:01:22;;;;;;;2.13;1.97;;;19.30;97.30;;;;;;5038184;28;20481;-88
2022/09/08 12:04:05;;;;;;;2.33;1.60;;;19.30;97.30;;;;;;5019564;28;20525;-86
2022/09/08 12:06:47;;;;;;;1.80;1.70;;;19.30;97.30;;;;;;5030828;28;20418;-86
2022/09/08 12:09:18;;;;;;;2.43;2.00;;;19.20;97.30;;;;;;5046182;28;20418;-87
2022/09/08 12:12:11;;;;;;;1.30;1.30;;;19.20;97.30;;;;;;5031584;28;20458;-87
2022/09/08 12:15:15;;;;;;;2.10;1.83;;;19.20;97.30;;;;;;5027209;28;20501;-87
2022/09/08 12:18:07;;;;;;;1.53;1.33;;;19.20;97.30;;;;;;5038185;28;20729;-87
2022/09/08 12:20:46;;;;;;;1.30;1.20;;;19.20;97.30;;;;;;5048273;28;20521;-88
2022/09/08 12:23:34;;;;;;;1.60;1.50;;;19.20;97.30;;;;;;5029334;28;20433;-87
2022/09/08 12:26:33;;;;;;;3.67;2.30;;;19.20;97.30;;;;;;5027424;28;20825;-86
2022/09/08 12:29:04;;;;;;;3.43;2.30;;;19.10;97.30;;;;;;5028208;28;20465;-86
2022/09/08 12:32:06;;;;;;;1.17;1.13;;;19.10;97.30;;;;;;5044779;28;20426;-87
2022/09/08 12:35:12;;;;;;;5.83;2.10;;;19.10;97.30;;;;;;5028506;28;20484;-87
2022/09/08 12:37:38;;;;;;;2.03;1.70;;;19.10;97.30;;;;;;5044163;28;20414;-89
2022/09/08 12:40:30;;;;;;;2.90;2.03;;;19.10;97.30;;;;;;5028222;28;20991;-87
2022/09/08 12:43:14;;;;;;;2.27;1.33;;;19.10;97.30;;;;;;5047297;28;20172;-88
2022/09/08 12:46:08;;;;;;;1.70;1.43;;;19.10;97.30;;;;;;5044671;28;20963;-86
2022/09/08 12:48:56;;;;;;;1.93;1.77;;;19.00;97.30;;;;;;5022680;28;20446;-87
2022/09/08 12:51:35;;;;;;;2.07;1.67;;;19.00;97.30;;;;;;5016777;28;20415;-87
2022/09/08 12:54:35;;;;;;;1.93;1.83;;;19.00;97.30;;;;;;5044954;28;20465;-87
2022/09/08 12:57:24;;;;;;;1.23;1.20;;;19.00;97.30;;;;;;5029196;28;21116;-87
2022/09/08 13:00:08;;;;;;;1.37;1.33;;;19.00;97.30;;;;;;5041335;28;20426;-86
2022/09/08 13:03:11;;;;;;;2.03;1.47;;;18.90;97.30;;;;;;5048533;28;20422;-87
2022/09/08 13:06:11;;;;;;;2.33;1.53;;;18.90;97.30;;;;;;5031147;28;20422;-88
2022/09/08 13:09:00;;;;;;;3.03;1.63;;;19.00;97.30;;;;;;5033718;28;20429;-86
2022/09/08 13:12:02;;;;;;;1.87;1.50;;;19.00;97.30;;;;;;5027473;28;20421;-88
2022/09/08 13:14:46;;;;;;;1.47;1.40;;;19.00;97.30;;;;;;5038330;28;20457;-87
2022/09/08 13:17:37;;;;;;;1.30;1.20;;;19.00;97.30;;;;;;5030375;28;20427;-87
2022/09/08 13:20:05;;;;;;;2.60;1.63;;;19.00;97.30;;;;;;5047292;28;20916;-87
2022/09/08 13:22:49;;;;;;;2.70;1.80;;;19.10;97.30;;;;;;5036402;28;20422;-86
2022/09/08 13:25:26;;;;;;;2.70;1.60;;;19.10;97.30;;;;;;5031660;28;20522;-87
2022/09/08 13:28:20;;;;;;;4.20;2.90;;;19.10;97.30;;;;;;5031289;28;20430;-86
2022/09/08 13:31:12;;;;;;;3.03;1.53;;;19.10;97.30;;;;;;5018897;28;20558;-89
2022/09/08 13:34:19;;;;;;;5.33;2.57;;;19.10;97.30;;;;;;5031391;28;20470;-85
2022/09/08 13:37:04;;;;;;;1.83;1.00;;;19.20;97.30;;;;;;5033320;28;20764;-85
2022/09/08 13:39:53;;;;;;;3.53;1.83;;;19.20;97.30;;;;;;4998572;28;20424;-86
2022/09/08 13:42:58;;;;;;;2.40;2.03;;;19.20;97.30;;;;;;5024254;28;20438;-85
2022/09/08 13:45:35;;;;;;;1.30;1.20;;;19.10;97.30;;;;;;5012983;28;20425;-85
2022/09/08 13:48:38;;;;;;;1.57;1.50;;;19.10;97.30;;;;;;5038512;28;20447;-85